Time;durP1;ratioP1;P1;durP2;ratioP2;P2;SDS_P1;SDS_P2;PMS_P1;PMS_P2;Temp;Humidity;BMP_temperature;BMP_pressure;BME280_temperature;BME280_humidity;BME280_pressure;Samples;Min_cycle;Max_cycle;Signal;HPM_P1;HPM_P2
2023/03/07 00:14:25;;;;;;;47.03;25.77;;;-0.10;99.90;;;;;;4773573;28;20255;-80
2023/03/07 00:50:04;;;;;;;33.83;19.47;;;-0.10;93.90;;;;;;4679041;29;20243;-80
2023/03/07 01:15:18;;;;;;;39.40;21.90;;;-0.30;95.80;;;;;;4656504;29;20345;-80
2023/03/07 01:55:46;;;;;;;30.13;16.37;;;-1.10;96.20;;;;;;4669526;29;20319;-80
2023/03/07 02:36:15;;;;;;;34.47;18.03;;;-3.10;99.90;;;;;;4579613;30;20614;-80
2023/03/07 03:06:32;;;;;;;38.50;19.37;;;-2.90;99.90;;;;;;4636144;29;20511;-81
2023/03/07 03:32:11;;;;;;;77.30;35.70;;;-2.30;99.90;;;;;;4642156;30;20555;-82
2023/03/07 04:13:01;;;;;;;90.43;36.73;;;-2.80;99.90;;;;;;4691659;29;20260;-82
2023/03/07 04:38:23;;;;;;;71.40;32.13;;;-2.70;99.90;;;;;;4671931;29;21381;-83
2023/03/07 05:13:54;;;;;;;62.87;28.63;;;-2.70;99.90;;;;;;4766993;29;20234;-82
2023/03/07 05:43:55;;;;;;;59.10;26.33;;;-2.80;99.90;;;;;;4702358;29;20975;-81
2023/03/07 06:04:41;;;;;;;72.33;27.87;;;-2.60;99.90;;;;;;4671503;30;20284;-83
2023/03/07 06:34:23;;;;;;;68.77;32.67;;;-2.20;99.90;;;;;;4662507;30;21104;-83
2023/03/07 07:00:27;;;;;;;70.60;31.73;;;-1.50;99.90;;;;;;4877053;29;20254;-84
2023/03/07 07:20:31;;;;;;;60.83;29.73;;;-1.00;99.90;;;;;;4723377;29;20291;-83
2023/03/07 07:45:40;;;;;;;50.03;27.00;;;0.10;97.60;;;;;;4559838;30;20587;-85
2023/03/07 08:05:43;;;;;;;51.93;27.20;;;0.20;95.50;;;;;;4584066;30;21119;-83
2023/03/07 08:36:39;;;;;;;53.33;27.67;;;-0.20;98.50;;;;;;4713298;29;20335;-81
2023/03/07 09:06:59;;;;;;;44.17;23.57;;;0.80;95.80;;;;;;4732944;29;20834;-82
2023/03/07 09:37:38;;;;;;;40.97;24.27;;;2.70;91.60;;;;;;4773051;29;20278;-81
2023/03/07 09:57:32;;;;;;;43.67;24.47;;;3.40;91.60;;;;;;4695670;29;20611;-81
2023/03/07 10:27:39;;;;;;;36.57;21.37;;;4.00;91.70;;;;;;4541630;30;20286;-82
2023/03/07 10:47:59;;;;;;;43.97;22.83;;;3.50;94.90;;;;;;4535191;30;20861;-81
2023/03/07 11:29:14;;;;;;;48.03;24.87;;;4.70;91.90;;;;;;4635562;29;20315;-83
2023/03/07 12:04:45;;;;;;;38.70;22.33;;;5.20;91.10;;;;;;4529666;30;20744;-83
2023/03/07 12:09:20;;;;;;;39.40;22.73;;;5.30;91.30;;;;;;4518200;30;20379;-83
2023/03/07 12:40:02;;;;;;;32.73;19.50;;;6.20;86.60;;;;;;4752642;29;20238;-84
2023/03/07 13:04:53;;;;;;;30.37;19.00;;;6.40;85.60;;;;;;4716587;29;20364;-83
2023/03/07 13:35:53;;;;;;;28.33;17.87;;;6.20;86.10;;;;;;4774016;29;20615;-82
2023/03/07 14:06:20;;;;;;;20.33;14.57;;;5.80;86.50;;;;;;4763285;29;20316;-83
2023/03/07 14:31:48;;;;;;;22.67;13.83;;;5.90;85.80;;;;;;4705688;29;20747;-83
2023/03/07 15:27:39;;;;;;;19.37;13.33;;;5.80;83.50;;;;;;4683230;29;20754;-81
2023/03/07 16:13:18;;;;;;;16.67;13.27;;;5.40;83.40;;;;;;4715829;29;20232;-77
2023/03/07 16:17:38;;;;;;;17.97;13.40;;;5.40;83.80;;;;;;4720796;29;20221;-79
2023/03/07 16:43:33;;;;;;;21.30;14.00;;;5.10;83.70;;;;;;4792713;28;20759;-82
2023/03/07 17:13:27;;;;;;;19.00;14.10;;;5.00;84.10;;;;;;4706871;29;21119;-81
2023/03/07 17:49:34;;;;;;;20.53;15.50;;;4.90;85.30;;;;;;4810477;28;20247;-79
2023/03/07 18:29:30;;;;;;;25.30;15.60;;;4.90;85.50;;;;;;4600263;29;20590;-79
2023/03/07 19:15:44;;;;;;;16.83;12.60;;;5.00;86.50;;;;;;4686472;29;20272;-81
2023/03/07 19:35:38;;;;;;;16.57;11.97;;;5.20;87.80;;;;;;4569260;30;20459;-80
2023/03/07 20:01:22;;;;;;;15.30;10.57;;;5.40;90.70;;;;;;4615898;30;20235;-81
2023/03/07 20:26:53;;;;;;;18.67;10.50;;;5.50;90.60;;;;;;4601804;30;20262;-80
2023/03/07 20:31:13;;;;;;;14.60;10.33;;;5.50;90.50;;;;;;4542260;30;20772;-82
2023/03/07 20:51:47;;;;;;;14.77;10.63;;;5.50;91.90;;;;;;4683161;29;20606;-81
2023/03/07 21:12:04;;;;;;;12.57;9.77;;;5.20;95.20;;;;;;4698485;29;20604;-81
2023/03/07 21:32:37;;;;;;;15.33;10.23;;;5.00;96.40;;;;;;4687302;30;20217;-84
2023/03/07 22:28:26;;;;;;;14.07;10.47;;;5.20;98.00;;;;;;4750954;29;20255;-82
2023/03/07 22:53:43;;;;;;;3.70;3.13;;;3.50;99.90;;;;;;4608450;29;20294;-82
2023/03/07 23:29:25;;;;;;;3.07;2.20;;;1.60;99.90;;;;;;4852375;28;21152;-81
2023/03/07 23:49:31;;;;;;;3.57;2.50;;;1.50;99.90;;;;;;4701654;29;20366;-81
